Time;durP1;ratioP1;P1;durP2;ratioP2;P2;SDS_P1;SDS_P2;PMS_P1;PMS_P2;Temp;Humidity;BMP_temperature;BMP_pressure;BME280_temperature;BME280_humidity;BME280_pressure;Samples;Min_cycle;Max_cycle;Signal;HPM_P1;HPM_P2
2023/06/29 00:01:32;;;;;;;26.88;19.45;;;19.50;99.90;;;;;;5072911;28;20509;-70
2023/06/29 00:03:58;;;;;;;27.42;19.02;;;19.50;99.90;;;;;;5072349;28;20033;-71
2023/06/29 00:06:24;;;;;;;26.60;17.95;;;19.50;99.90;;;;;;5072703;28;20074;-71
2023/06/29 00:08:49;;;;;;;28.02;19.80;;;19.50;99.90;;;;;;5072337;28;20063;-70
2023/06/29 00:11:15;;;;;;;29.00;19.08;;;19.50;99.90;;;;;;5071322;28;20021;-71
2023/06/29 00:13:41;;;;;;;28.13;18.55;;;19.50;99.90;;;;;;5071880;28;20032;-70
2023/06/29 00:16:07;;;;;;;28.50;19.83;;;19.50;99.90;;;;;;5072267;28;20020;-71
2023/06/29 00:18:33;;;;;;;31.75;21.20;;;19.50;99.90;;;;;;5072616;28;20031;-70
2023/06/29 00:21:00;;;;;;;31.45;21.10;;;19.50;99.90;;;;;;5072241;28;20066;-70
2023/06/29 00:23:26;;;;;;;32.85;20.85;;;19.50;99.90;;;;;;5072459;28;20498;-70
2023/06/29 00:25:56;;;;;;;32.60;21.10;;;19.50;99.90;;;;;;5071849;28;20515;-70
2023/06/29 00:28:21;;;;;;;30.25;21.40;;;19.50;99.90;;;;;;5072453;28;20060;-71
2023/06/29 00:30:47;;;;;;;27.10;21.50;;;19.50;99.90;;;;;;5072255;28;20049;-70
2023/06/29 00:33:13;;;;;;;31.00;20.98;;;19.50;99.90;;;;;;5071862;28;20029;-70
2023/06/29 00:35:38;;;;;;;30.27;21.45;;;19.50;99.90;;;;;;5072535;28;20070;-70
2023/06/29 00:38:04;;;;;;;29.23;19.58;;;19.50;99.90;;;;;;5071658;28;20031;-71
2023/06/29 00:40:29;;;;;;;29.02;20.27;;;19.50;99.90;;;;;;5063524;28;20024;-71
2023/06/29 00:42:55;;;;;;;32.95;21.23;;;19.50;99.90;;;;;;5071959;28;20021;-70
2023/06/29 00:45:21;;;;;;;32.22;21.77;;;19.50;99.90;;;;;;5072104;28;20103;-70
2023/06/29 00:47:47;;;;;;;28.65;20.80;;;19.50;99.90;;;;;;5072041;28;20028;-71
2023/06/29 00:50:13;;;;;;;28.90;20.35;;;19.50;99.90;;;;;;5070469;28;20078;-71
2023/06/29 00:52:39;;;;;;;29.17;22.00;;;19.50;99.90;;;;;;5070820;28;20151;-71
2023/06/29 00:55:05;;;;;;;31.00;20.77;;;19.50;99.90;;;;;;5071039;28;20021;-70
2023/06/29 00:57:31;;;;;;;31.48;21.52;;;19.50;99.90;;;;;;5071974;28;20061;-70
2023/06/29 00:59:59;;;;;;;26.67;20.67;;;19.50;99.90;;;;;;5070408;28;20134;-70
2023/06/29 01:02:31;;;;;;;31.52;21.33;;;19.50;99.90;;;;;;5071665;28;20020;-70
2023/06/29 01:04:58;;;;;;;33.40;21.50;;;19.50;99.90;;;;;;5071445;28;20090;-70
2023/06/29 01:07:30;;;;;;;28.42;21.48;;;19.50;99.90;;;;;;5071608;28;20060;-70
2023/06/29 01:09:57;;;;;;;28.15;20.52;;;19.50;99.90;;;;;;5069713;28;20041;-71
2023/06/29 01:12:23;;;;;;;27.25;20.63;;;19.50;99.90;;;;;;5071329;28;20033;-70
2023/06/29 01:14:50;;;;;;;31.52;21.13;;;19.50;99.90;;;;;;5071261;28;20033;-70
2023/06/29 01:17:19;;;;;;;28.73;20.42;;;19.50;99.90;;;;;;5071875;28;20028;-70
2023/06/29 01:19:47;;;;;;;29.40;20.27;;;19.50;99.90;;;;;;5071383;28;20039;-70
2023/06/29 01:22:41;;;;;;;32.33;22.08;;;19.50;99.90;;;;;;5069752;28;20024;-70
2023/06/29 01:25:07;;;;;;;29.00;20.52;;;19.50;99.90;;;;;;5067919;28;20063;-70
2023/06/29 01:27:36;;;;;;;31.50;22.40;;;19.50;99.90;;;;;;5069904;28;20386;-70
2023/06/29 01:30:04;;;;;;;29.35;21.15;;;19.50;99.90;;;;;;5070821;28;20036;-70
2023/06/29 01:32:35;;;;;;;30.88;23.60;;;19.50;99.90;;;;;;5070960;28;20029;-70
2023/06/29 01:35:02;;;;;;;31.05;21.40;;;19.50;99.90;;;;;;5070805;28;20459;-70
2023/06/29 01:37:35;;;;;;;34.15;24.42;;;19.50;99.90;;;;;;5070432;28;20024;-70
2023/06/29 01:40:03;;;;;;;32.42;23.77;;;19.50;99.90;;;;;;5070033;28;20525;-70
2023/06/29 01:42:31;;;;;;;34.67;23.80;;;19.50;99.90;;;;;;5071335;28;20035;-70
2023/06/29 01:44:59;;;;;;;32.90;24.48;;;19.50;99.90;;;;;;5070504;28;20086;-70
2023/06/29 01:47:26;;;;;;;34.97;23.50;;;19.50;99.90;;;;;;5069443;28;20032;-70
2023/06/29 01:49:52;;;;;;;33.42;24.90;;;19.50;99.90;;;;;;5070530;28;20023;-71
2023/06/29 01:52:18;;;;;;;34.92;25.00;;;19.60;99.90;;;;;;5071253;28;20386;-70
2023/06/29 01:54:44;;;;;;;36.65;24.17;;;19.60;99.90;;;;;;5069446;28;20492;-71
2023/06/29 01:57:10;;;;;;;34.25;24.20;;;19.60;99.90;;;;;;5070464;28;20407;-70
2023/06/29 01:59:35;;;;;;;35.58;25.10;;;19.60;99.90;;;;;;5070898;28;20040;-70
2023/06/29 02:02:01;;;;;;;31.58;23.85;;;19.60;99.90;;;;;;5070176;28;20043;-70
2023/06/29 02:04:27;;;;;;;33.05;25.15;;;19.60;99.90;;;;;;5070533;28;20094;-70
2023/06/29 02:06:53;;;;;;;32.15;23.38;;;19.60;99.90;;;;;;5070493;28;20425;-71
2023/06/29 02:09:18;;;;;;;35.28;23.30;;;19.50;99.90;;;;;;5069346;28;20028;-70
2023/06/29 02:11:44;;;;;;;31.42;22.15;;;19.60;99.90;;;;;;5069498;28;20485;-71
2023/06/29 02:14:09;;;;;;;32.58;23.70;;;19.60;99.90;;;;;;5070246;28;20025;-70
2023/06/29 02:16:35;;;;;;;30.80;22.05;;;19.60;99.90;;;;;;5070451;28;20047;-71
2023/06/29 02:19:00;;;;;;;36.33;24.38;;;19.60;99.90;;;;;;5069097;28;20029;-70
2023/06/29 02:21:26;;;;;;;31.52;23.25;;;19.60;99.90;;;;;;5070575;28;20028;-71
2023/06/29 02:23:51;;;;;;;36.50;24.73;;;19.70;99.90;;;;;;5069881;28;20452;-71
2023/06/29 02:26:17;;;;;;;31.70;21.63;;;19.60;99.90;;;;;;5070632;28;20546;-71
2023/06/29 02:28:42;;;;;;;35.20;24.67;;;19.70;99.90;;;;;;5070429;28;20081;-70
2023/06/29 02:31:08;;;;;;;33.83;24.10;;;19.60;99.90;;;;;;5069649;28;20218;-70
2023/06/29 02:33:34;;;;;;;35.50;25.67;;;19.70;99.90;;;;;;5070670;28;20037;-71
2023/06/29 02:35:59;;;;;;;33.53;24.10;;;19.60;99.90;;;;;;5071691;28;20031;-71
2023/06/29 02:38:25;;;;;;;33.60;25.08;;;19.70;99.90;;;;;;5061430;28;20031;-70
2023/06/29 02:40:50;;;;;;;36.38;26.27;;;19.70;99.90;;;;;;5074394;28;20424;-71
2023/06/29 02:43:16;;;;;;;41.53;26.60;;;19.70;99.90;;;;;;5074441;28;20361;-70
2023/06/29 02:45:41;;;;;;;38.38;27.17;;;19.70;99.90;;;;;;5074299;28;20421;-70
2023/06/29 02:48:07;;;;;;;38.03;27.42;;;19.70;99.90;;;;;;5073972;28;20351;-71
2023/06/29 02:50:33;;;;;;;38.67;26.25;;;19.70;99.90;;;;;;5074451;28;20382;-70
2023/06/29 02:52:58;;;;;;;36.65;26.35;;;19.60;99.90;;;;;;5074114;28;20029;-70
2023/06/29 02:55:24;;;;;;;36.70;26.52;;;19.70;99.90;;;;;;5074646;28;20016;-71
2023/06/29 02:57:50;;;;;;;41.13;28.15;;;19.70;99.90;;;;;;5073733;28;20104;-71
2023/06/29 03:00:16;;;;;;;35.55;28.13;;;19.70;99.90;;;;;;5073783;28;20025;-71
2023/06/29 03:02:44;;;;;;;37.72;27.38;;;19.70;99.90;;;;;;5073999;28;20078;-71
2023/06/29 03:05:10;;;;;;;45.05;27.63;;;19.60;99.90;;;;;;5073537;28;20048;-70
2023/06/29 03:07:35;;;;;;;36.78;27.13;;;19.70;99.90;;;;;;5074094;28;20249;-70
2023/06/29 03:10:01;;;;;;;36.60;26.88;;;19.70;99.90;;;;;;5073281;28;20481;-70
2023/06/29 03:12:27;;;;;;;37.75;26.13;;;19.60;99.90;;;;;;5073956;28;20078;-71
2023/06/29 03:14:52;;;;;;;42.08;27.80;;;19.70;99.90;;;;;;5073457;28;20078;-70
2023/06/29 03:17:18;;;;;;;39.78;27.55;;;19.70;99.90;;;;;;5072390;28;20029;-70
2023/06/29 03:19:44;;;;;;;39.30;26.85;;;19.60;99.90;;;;;;5073818;28;20024;-70
2023/06/29 03:22:10;;;;;;;39.15;27.92;;;19.60;99.90;;;;;;5073361;28;20082;-70
2023/06/29 03:24:36;;;;;;;41.42;29.15;;;19.60;99.90;;;;;;5073457;28;20135;-70
2023/06/29 03:27:01;;;;;;;43.10;29.58;;;19.60;99.90;;;;;;5073242;28;20033;-71
2023/06/29 03:29:27;;;;;;;37.50;27.80;;;19.60;99.90;;;;;;5073761;28;20493;-71
2023/06/29 03:31:52;;;;;;;39.70;28.75;;;19.60;99.90;;;;;;5072751;28;20025;-70
2023/06/29 03:34:18;;;;;;;38.30;29.08;;;19.60;99.90;;;;;;5073575;28;20024;-71
2023/06/29 03:36:43;;;;;;;40.33;29.33;;;19.60;99.90;;;;;;5063875;28;20391;-70
2023/06/29 03:39:09;;;;;;;41.63;28.52;;;19.60;99.90;;;;;;5071916;28;20028;-70
2023/06/29 03:41:34;;;;;;;39.75;28.23;;;19.60;99.90;;;;;;5073211;28;20024;-70
2023/06/29 03:44:00;;;;;;;38.85;29.00;;;19.60;99.90;;;;;;5071549;28;20430;-70
2023/06/29 03:46:25;;;;;;;42.60;30.05;;;19.60;99.90;;;;;;5071884;28;20207;-70
2023/06/29 03:48:51;;;;;;;41.97;29.77;;;19.60;99.90;;;;;;5072847;28;20562;-70
2023/06/29 03:51:16;;;;;;;41.10;29.80;;;19.60;99.90;;;;;;5072024;28;20016;-70
2023/06/29 03:53:42;;;;;;;43.15;31.10;;;19.70;99.90;;;;;;5071897;28;20082;-70
2023/06/29 03:56:10;;;;;;;41.90;29.52;;;19.70;99.90;;;;;;5072742;28;20293;-70
2023/06/29 03:58:35;;;;;;;41.95;29.42;;;19.70;99.90;;;;;;5073085;28;20348;-70
2023/06/29 04:01:01;;;;;;;41.55;28.50;;;19.70;99.90;;;;;;5072595;28;20032;-70
2023/06/29 04:03:26;;;;;;;42.00;28.63;;;19.70;99.90;;;;;;5072823;28;20090;-70
2023/06/29 04:05:52;;;;;;;42.38;28.40;;;19.70;99.90;;;;;;5071169;28;20116;-71
2023/06/29 04:08:18;;;;;;;37.20;27.75;;;19.70;99.90;;;;;;5072883;28;20053;-70
2023/06/29 04:10:44;;;;;;;37.17;27.58;;;19.70;99.90;;;;;;5072671;28;20023;-70
2023/06/29 04:13:09;;;;;;;40.65;29.23;;;19.70;99.90;;;;;;5072356;28;20111;-71
2023/06/29 04:15:35;;;;;;;41.55;29.02;;;19.70;99.90;;;;;;5072399;28;20024;-70
2023/06/29 04:18:01;;;;;;;37.67;27.63;;;19.70;99.90;;;;;;5072353;28;20390;-70
2023/06/29 04:20:28;;;;;;;41.80;28.80;;;19.70;99.90;;;;;;5072594;28;20104;-72
2023/06/29 04:22:54;;;;;;;36.15;28.38;;;19.70;99.90;;;;;;5072230;28;20021;-71
2023/06/29 04:25:20;;;;;;;42.22;30.60;;;19.70;99.90;;;;;;5072482;28;20129;-70
2023/06/29 04:27:46;;;;;;;45.15;30.67;;;19.70;99.90;;;;;;5072699;28;20456;-70
2023/06/29 04:30:11;;;;;;;44.72;32.15;;;19.80;99.90;;;;;;5072087;28;20816;-71
2023/06/29 04:32:37;;;;;;;43.38;31.20;;;19.70;99.90;;;;;;5072225;28;20032;-70
2023/06/29 04:35:03;;;;;;;42.00;31.92;;;19.80;99.90;;;;;;5064832;28;20162;-70
2023/06/29 04:37:40;;;;;;;44.45;31.27;;;19.80;99.90;;;;;;5072455;28;20020;-70
2023/06/29 04:40:07;;;;;;;43.65;31.20;;;19.80;99.90;;;;;;5061343;28;20020;-71
2023/06/29 04:42:32;;;;;;;42.92;31.02;;;19.80;99.90;;;;;;5072558;28;20021;-70
2023/06/29 04:45:00;;;;;;;41.42;30.15;;;19.90;99.90;;;;;;5071359;28;20504;-70
2023/06/29 04:47:26;;;;;;;46.58;32.95;;;19.90;99.90;;;;;;5072618;28;20149;-70
2023/06/29 04:49:52;;;;;;;46.70;31.77;;;19.90;99.90;;;;;;5071704;28;20107;-71
2023/06/29 04:52:21;;;;;;;42.50;30.95;;;19.90;99.90;;;;;;5072274;28;20501;-70
2023/06/29 04:54:46;;;;;;;45.75;31.42;;;19.90;99.90;;;;;;5071993;28;20036;-70
2023/06/29 04:57:12;;;;;;;40.53;29.08;;;20.00;99.90;;;;;;5071662;28;20025;-70
2023/06/29 04:59:38;;;;;;;39.85;28.83;;;20.00;99.90;;;;;;5070156;28;20339;-70
2023/06/29 05:02:04;;;;;;;41.70;29.13;;;20.00;99.90;;;;;;5071447;28;20029;-70
2023/06/29 05:04:30;;;;;;;43.45;30.40;;;20.10;99.90;;;;;;5070336;28;20121;-70
2023/06/29 05:06:55;;;;;;;42.13;29.83;;;20.10;99.90;;;;;;5070295;28;20675;-70
2023/06/29 05:09:21;;;;;;;43.85;29.60;;;20.10;99.90;;;;;;5071595;28;20033;-70
2023/06/29 05:11:56;;;;;;;40.60;29.45;;;20.10;99.90;;;;;;5071592;28;20402;-70
2023/06/29 05:14:22;;;;;;;41.95;29.92;;;20.20;99.90;;;;;;5071852;28;20063;-70
2023/06/29 05:16:47;;;;;;;41.10;29.73;;;20.20;99.90;;;;;;5071625;28;20443;-70
2023/06/29 05:19:13;;;;;;;44.30;29.58;;;20.20;99.90;;;;;;5071681;28;20078;-70
2023/06/29 05:21:38;;;;;;;40.40;28.98;;;20.30;99.90;;;;;;5070496;28;20024;-71
2023/06/29 05:24:04;;;;;;;40.92;28.65;;;20.30;99.90;;;;;;5071251;28;20521;-71
2023/06/29 05:26:30;;;;;;;37.50;27.63;;;20.30;99.90;;;;;;5071722;28;20028;-70
2023/06/29 05:28:57;;;;;;;39.05;28.27;;;20.40;99.90;;;;;;5069797;28;20215;-71
2023/06/29 05:31:22;;;;;;;37.78;26.85;;;20.40;99.90;;;;;;5071562;28;20482;-70
2023/06/29 05:33:48;;;;;;;41.55;27.73;;;20.50;99.90;;;;;;5058413;28;20083;-71
2023/06/29 05:36:13;;;;;;;38.65;26.48;;;20.50;99.90;;;;;;5051515;28;20070;-70
2023/06/29 05:38:39;;;;;;;36.35;24.88;;;20.60;99.90;;;;;;5063910;28;20063;-71
2023/06/29 05:41:05;;;;;;;38.97;25.85;;;20.60;99.90;;;;;;5071047;28;20053;-70
2023/06/29 05:43:30;;;;;;;35.22;23.88;;;20.70;99.90;;;;;;5070914;28;20479;-70
2023/06/29 05:45:56;;;;;;;37.20;25.08;;;20.80;99.90;;;;;;5070864;28;20130;-70
2023/06/29 05:48:21;;;;;;;36.05;25.40;;;20.90;99.90;;;;;;5071213;28;20527;-71
2023/06/29 05:50:47;;;;;;;33.95;23.17;;;20.90;99.90;;;;;;5070289;28;20025;-70
2023/06/29 05:53:12;;;;;;;36.03;23.23;;;21.00;99.90;;;;;;5070659;28;20024;-71
2023/06/29 05:55:38;;;;;;;33.70;23.70;;;21.00;99.90;;;;;;5071018;28;20062;-70
2023/06/29 05:58:03;;;;;;;32.75;22.90;;;21.00;99.90;;;;;;5070476;28;20181;-70
2023/06/29 06:00:29;;;;;;;35.33;25.17;;;21.00;99.90;;;;;;5070021;28;20032;-70
2023/06/29 06:02:54;;;;;;;37.40;25.00;;;21.00;99.90;;;;;;5070854;28;20436;-71
2023/06/29 06:05:20;;;;;;;36.72;24.30;;;21.00;99.90;;;;;;5070941;28;20033;-70
2023/06/29 06:07:45;;;;;;;36.33;24.25;;;21.00;99.90;;;;;;5069762;28;20027;-70
2023/06/29 06:10:11;;;;;;;37.10;24.10;;;21.10;99.90;;;;;;5069489;28;20029;-70
2023/06/29 06:12:37;;;;;;;37.08;24.73;;;21.10;99.90;;;;;;5071335;28;20122;-70
2023/06/29 06:15:03;;;;;;;36.58;24.90;;;21.20;99.90;;;;;;5070545;28;20021;-70
2023/06/29 06:17:28;;;;;;;35.90;25.42;;;21.20;99.90;;;;;;5070959;28;20017;-71
2023/06/29 06:19:54;;;;;;;39.67;24.88;;;21.10;99.90;;;;;;5069439;28;20564;-70
2023/06/29 06:22:20;;;;;;;34.65;24.48;;;21.10;99.90;;;;;;5070913;28;20096;-70
2023/06/29 06:24:45;;;;;;;35.65;24.17;;;21.10;99.90;;;;;;5070360;28;20079;-70
2023/06/29 06:27:11;;;;;;;40.70;25.10;;;21.20;99.90;;;;;;5070559;28;20025;-70
2023/06/29 06:29:37;;;;;;;35.42;25.58;;;21.20;99.90;;;;;;5070635;28;20048;-71
2023/06/29 06:32:03;;;;;;;37.67;24.65;;;21.30;99.90;;;;;;5069997;28;20025;-71
2023/06/29 06:34:30;;;;;;;35.47;25.85;;;21.40;99.90;;;;;;5070936;28;20021;-71
2023/06/29 06:36:57;;;;;;;35.38;25.25;;;21.50;99.90;;;;;;5070180;28;20055;-71
2023/06/29 06:39:23;;;;;;;34.10;22.88;;;21.50;99.90;;;;;;5070869;28;20025;-70
2023/06/29 06:41:49;;;;;;;31.05;23.40;;;21.60;99.90;;;;;;5070369;28;20064;-71
2023/06/29 06:44:14;;;;;;;34.42;24.77;;;21.70;99.90;;;;;;5069091;28;20067;-70
2023/06/29 06:46:40;;;;;;;34.53;23.13;;;21.70;99.90;;;;;;5070927;28;20103;-70
2023/06/29 06:49:06;;;;;;;34.65;22.90;;;21.80;99.90;;;;;;5070056;28;20039;-70
2023/06/29 06:51:31;;;;;;;29.20;23.52;;;21.80;99.90;;;;;;5070794;28;20029;-70
2023/06/29 06:53:57;;;;;;;34.03;23.75;;;21.90;99.90;;;;;;5070098;28;20414;-70
2023/06/29 06:56:25;;;;;;;31.13;22.10;;;22.00;99.90;;;;;;5070386;28;20044;-70
2023/06/29 06:58:50;;;;;;;34.25;22.58;;;22.10;99.90;;;;;;5070081;28;20036;-70
2023/06/29 07:01:17;;;;;;;26.77;21.05;;;22.20;99.90;;;;;;5070562;28;20479;-70
2023/06/29 07:03:42;;;;;;;30.48;21.00;;;22.30;99.90;;;;;;5070573;28;20037;-70
2023/06/29 07:06:08;;;;;;;33.75;20.85;;;22.40;99.90;;;;;;5069653;28;20028;-71
2023/06/29 07:08:35;;;;;;;28.50;20.50;;;22.50;99.90;;;;;;5070185;28;20020;-70
2023/06/29 07:11:01;;;;;;;27.83;19.92;;;22.60;99.90;;;;;;5070222;28;20029;-71
2023/06/29 07:13:27;;;;;;;27.50;19.70;;;22.70;99.90;;;;;;5070538;28;20024;-71
2023/06/29 07:15:52;;;;;;;25.65;19.40;;;22.80;99.90;;;;;;5069788;28;20017;-71
2023/06/29 07:18:18;;;;;;;27.50;18.80;;;22.90;99.90;;;;;;5070306;28;20020;-71
2023/06/29 07:20:44;;;;;;;25.88;19.48;;;23.00;99.90;;;;;;5069444;28;20397;-70
2023/06/29 07:23:10;;;;;;;25.27;17.55;;;23.10;99.90;;;;;;5073056;28;20443;-70
2023/06/29 07:25:35;;;;;;;23.45;16.60;;;23.20;99.90;;;;;;5072936;28;20529;-70
2023/06/29 07:28:01;;;;;;;22.52;17.38;;;23.30;99.90;;;;;;5073419;28;20025;-71
2023/06/29 07:30:27;;;;;;;22.52;17.52;;;23.40;99.90;;;;;;5066748;28;20189;-70
2023/06/29 07:32:52;;;;;;;24.40;18.00;;;23.50;99.90;;;;;;5065714;28;20025;-70
2023/06/29 07:35:18;;;;;;;22.83;16.85;;;23.70;99.90;;;;;;5073426;28;20028;-70
2023/06/29 07:37:44;;;;;;;24.40;17.35;;;23.80;99.90;;;;;;5073424;28;20051;-71
2023/06/29 07:40:10;;;;;;;22.70;16.08;;;24.00;99.90;;;;;;5073187;28;20068;-70
2023/06/29 07:42:35;;;;;;;24.60;17.30;;;24.00;99.90;;;;;;5072288;28;20097;-71
2023/06/29 07:45:01;;;;;;;22.58;17.65;;;23.90;99.90;;;;;;5073180;28;20028;-71
2023/06/29 07:47:26;;;;;;;22.40;16.77;;;23.90;99.90;;;;;;5073537;28;20051;-71
2023/06/29 07:49:52;;;;;;;30.00;18.05;;;24.00;99.90;;;;;;5073011;28;20111;-71
2023/06/29 07:52:17;;;;;;;21.58;16.67;;;23.90;99.90;;;;;;5073538;28;20013;-71
2023/06/29 07:54:43;;;;;;;24.17;16.15;;;24.00;99.90;;;;;;5073317;28;20154;-71
2023/06/29 07:57:10;;;;;;;24.20;17.48;;;24.00;99.90;;;;;;5073168;28;20020;-71
2023/06/29 07:59:35;;;;;;;23.50;16.80;;;24.10;99.90;;;;;;5073506;28;20042;-71
2023/06/29 08:02:01;;;;;;;25.20;17.23;;;24.20;99.90;;;;;;5071655;28;20028;-70
2023/06/29 08:04:27;;;;;;;26.48;17.75;;;24.20;99.90;;;;;;5072733;28;20020;-71
2023/06/29 08:06:52;;;;;;;23.50;17.27;;;24.30;99.90;;;;;;5072612;28;21068;-71
2023/06/29 08:09:18;;;;;;;24.45;17.35;;;24.40;99.90;;;;;;5072781;28;20041;-71
2023/06/29 08:11:44;;;;;;;24.45;17.80;;;24.50;99.90;;;;;;5071708;28;20024;-70
2023/06/29 08:14:10;;;;;;;22.52;16.92;;;24.60;99.90;;;;;;5072390;28;20024;-71
2023/06/29 08:16:35;;;;;;;24.17;16.90;;;24.80;99.90;;;;;;5071557;28;20025;-71
2023/06/29 08:19:00;;;;;;;24.02;18.38;;;25.00;99.90;;;;;;5072540;28;20032;-71
2023/06/29 08:21:26;;;;;;;22.83;16.70;;;25.10;99.90;;;;;;5072250;28;20093;-70
2023/06/29 08:23:52;;;;;;;25.13;16.60;;;25.00;99.90;;;;;;5072115;28;20434;-70
2023/06/29 08:26:18;;;;;;;24.48;17.98;;;25.00;99.90;;;;;;5072641;28;20107;-70
2023/06/29 08:28:43;;;;;;;22.85;17.67;;;25.00;99.90;;;;;;5068665;28;20021;-71
2023/06/29 08:31:09;;;;;;;20.90;15.88;;;25.00;99.90;;;;;;5050619;28;20078;-71
2023/06/29 08:33:35;;;;;;;23.42;16.60;;;25.10;99.90;;;;;;5051804;28;20021;-71
2023/06/29 08:36:00;;;;;;;22.13;16.63;;;25.20;99.90;;;;;;5062302;28;20024;-71
2023/06/29 08:38:26;;;;;;;21.20;16.02;;;25.10;99.90;;;;;;5071957;28;20169;-71
2023/06/29 08:40:52;;;;;;;19.98;14.93;;;25.10;99.90;;;;;;5070615;28;20065;-71
2023/06/29 08:43:18;;;;;;;21.52;15.73;;;25.00;99.90;;;;;;5071961;28;20017;-71
2023/06/29 08:45:45;;;;;;;24.48;16.98;;;25.00;99.70;;;;;;5072322;28;20039;-71
2023/06/29 08:48:12;;;;;;;24.42;16.85;;;24.90;99.60;;;;;;5071802;28;20016;-70
2023/06/29 08:50:44;;;;;;;21.40;15.82;;;24.90;99.90;;;;;;5072288;28;20028;-70
2023/06/29 08:53:12;;;;;;;22.08;16.15;;;24.80;99.90;;;;;;5071833;28;20020;-72
2023/06/29 08:55:39;;;;;;;23.65;16.48;;;24.80;99.90;;;;;;5072227;28;20025;-71
2023/06/29 08:58:07;;;;;;;22.70;16.02;;;24.80;99.90;;;;;;5071714;28;20028;-72
2023/06/29 09:00:34;;;;;;;24.55;17.27;;;24.80;99.60;;;;;;5072209;28;20029;-71
2023/06/29 09:03:03;;;;;;;20.95;16.30;;;24.90;99.40;;;;;;5071788;28;20024;-72
2023/06/29 09:05:29;;;;;;;22.17;16.25;;;24.90;99.10;;;;;;5071917;28;20036;-71
2023/06/29 09:07:55;;;;;;;22.85;16.23;;;24.90;99.00;;;;;;5070147;28;20394;-72
2023/06/29 09:10:22;;;;;;;21.77;15.93;;;24.90;98.60;;;;;;5071649;28;20036;-70
2023/06/29 09:12:49;;;;;;;24.83;16.38;;;24.90;98.80;;;;;;5071693;28;20023;-70
2023/06/29 09:15:16;;;;;;;22.58;16.88;;;25.00;98.60;;;;;;5071576;28;20017;-70
2023/06/29 09:17:45;;;;;;;21.63;16.15;;;25.10;98.20;;;;;;5071091;28;20019;-70
2023/06/29 09:20:15;;;;;;;23.33;17.02;;;25.20;98.00;;;;;;5071002;28;20016;-70
2023/06/29 09:22:42;;;;;;;20.77;16.13;;;25.40;97.90;;;;;;5071351;28;20020;-70
2023/06/29 09:25:13;;;;;;;22.52;15.88;;;25.60;97.90;;;;;;5070616;28;20052;-70
2023/06/29 09:27:39;;;;;;;20.83;16.38;;;25.70;97.10;;;;;;5065439;28;20017;-70
2023/06/29 09:30:06;;;;;;;22.08;16.50;;;25.70;96.50;;;;;;5064329;28;20498;-70
2023/06/29 09:32:37;;;;;;;23.83;16.58;;;25.70;96.20;;;;;;5071528;28;20446;-70
2023/06/29 09:35:07;;;;;;;22.00;16.45;;;25.60;95.90;;;;;;5070915;28;20044;-70
2023/06/29 09:37:36;;;;;;;20.42;15.45;;;25.70;96.50;;;;;;5071304;28;20032;-70
2023/06/29 09:40:09;;;;;;;23.85;17.17;;;25.90;96.80;;;;;;5070574;28;20489;-70
2023/06/29 09:42:37;;;;;;;22.17;16.88;;;26.20;96.20;;;;;;5071265;28;20043;-70
2023/06/29 09:45:14;;;;;;;23.13;17.33;;;26.40;95.80;;;;;;5070418;28;20029;-70
2023/06/29 09:47:47;;;;;;;23.15;17.27;;;26.50;95.40;;;;;;5070856;28;20021;-70
2023/06/29 09:50:20;;;;;;;22.83;17.65;;;26.60;95.50;;;;;;5070923;28;20344;-70
2023/06/29 09:52:48;;;;;;;23.73;18.45;;;26.60;94.30;;;;;;5070162;28;20029;-70
2023/06/29 09:55:17;;;;;;;21.15;16.27;;;26.40;93.80;;;;;;5070793;28;20020;-71
2023/06/29 09:57:49;;;;;;;22.38;16.98;;;26.40;94.10;;;;;;5071026;28;20054;-70
2023/06/29 10:00:15;;;;;;;23.55;16.90;;;26.30;94.00;;;;;;5071279;28;20039;-71
2023/06/29 10:02:41;;;;;;;24.83;16.65;;;26.40;94.20;;;;;;5070669;28;20393;-70
2023/06/29 10:05:08;;;;;;;20.33;15.38;;;26.40;93.80;;;;;;5070449;28;20049;-70
2023/06/29 10:07:35;;;;;;;23.50;16.90;;;26.50;93.90;;;;;;5070964;28;20056;-70
2023/06/29 10:10:04;;;;;;;20.30;15.20;;;26.60;93.70;;;;;;5070234;28;20529;-70
2023/06/29 10:12:31;;;;;;;20.17;15.50;;;26.60;93.20;;;;;;5070846;28;20066;-71
2023/06/29 10:15:00;;;;;;;19.25;14.40;;;26.60;93.00;;;;;;5070633;28;20226;-71
2023/06/29 10:17:35;;;;;;;21.80;14.57;;;26.60;93.10;;;;;;5070587;28;20035;-70
2023/06/29 10:20:03;;;;;;;19.67;14.30;;;26.80;92.70;;;;;;5070315;28;20028;-71
2023/06/29 10:22:29;;;;;;;21.35;14.23;;;26.90;92.50;;;;;;5068514;28;20020;-70
2023/06/29 10:25:00;;;;;;;22.92;16.00;;;27.00;92.70;;;;;;5070122;28;20056;-71
2023/06/29 10:27:29;;;;;;;21.83;15.35;;;26.90;91.90;;;;;;5069365;28;20025;-70
2023/06/29 10:29:54;;;;;;;20.42;14.68;;;27.00;91.90;;;;;;5069884;28;20483;-70
2023/06/29 10:32:34;;;;;;;20.15;14.95;;;27.00;91.60;;;;;;5070659;28;20039;-70
2023/06/29 10:35:11;;;;;;;20.15;15.98;;;26.90;91.20;;;;;;5070510;28;20036;-70
2023/06/29 10:37:48;;;;;;;19.40;15.23;;;26.70;92.00;;;;;;5070672;28;20025;-70
2023/06/29 10:40:19;;;;;;;20.13;15.63;;;26.80;91.90;;;;;;5070849;28;20151;-70
2023/06/29 10:42:50;;;;;;;17.80;14.80;;;26.80;91.40;;;;;;5069129;28;20028;-70
2023/06/29 10:45:21;;;;;;;20.48;15.55;;;26.90;91.20;;;;;;5070437;28;20032;-71
2023/06/29 10:48:17;;;;;;;22.10;14.55;;;26.90;91.00;;;;;;5070738;28;20047;-71
2023/06/29 10:50:47;;;;;;;19.02;14.57;;;27.00;90.90;;;;;;5070346;28;20078;-71
2023/06/29 10:53:17;;;;;;;20.08;15.30;;;26.90;90.30;;;;;;5070440;28;20083;-70
2023/06/29 10:55:49;;;;;;;19.63;15.52;;;26.80;90.20;;;;;;5069983;28;20505;-71
2023/06/29 10:58:17;;;;;;;19.58;14.95;;;26.70;90.40;;;;;;5074016;28;20486;-71
2023/06/29 11:00:43;;;;;;;21.67;15.85;;;26.80;90.40;;;;;;5074369;28;20024;-71
2023/06/29 11:03:10;;;;;;;21.80;15.82;;;26.90;90.50;;;;;;5073691;28;20032;-71
2023/06/29 11:05:36;;;;;;;21.67;15.95;;;26.80;89.90;;;;;;5074494;28;20041;-71
2023/06/29 11:08:02;;;;;;;21.08;16.08;;;26.80;89.70;;;;;;5074031;28;20352;-71
2023/06/29 11:10:28;;;;;;;23.25;16.02;;;26.80;90.00;;;;;;5073977;28;20029;-71
2023/06/29 11:12:54;;;;;;;21.23;16.35;;;26.70;89.50;;;;;;5073206;28;20020;-70
2023/06/29 11:15:22;;;;;;;21.75;16.50;;;26.80;90.00;;;;;;5074066;28;20032;-71
2023/06/29 11:17:51;;;;;;;20.88;16.55;;;26.80;90.00;;;;;;5074648;28;20025;-71
2023/06/29 11:20:18;;;;;;;23.35;16.83;;;26.90;90.10;;;;;;5073946;28;20035;-71
2023/06/29 11:22:45;;;;;;;21.90;17.08;;;26.90;90.00;;;;;;5074254;28;20103;-71
2023/06/29 11:25:15;;;;;;;21.38;15.55;;;26.80;89.90;;;;;;5072510;28;20059;-71
2023/06/29 11:27:41;;;;;;;23.02;16.45;;;26.80;89.90;;;;;;5073726;28;20020;-70
2023/06/29 11:30:09;;;;;;;24.50;17.58;;;26.90;89.40;;;;;;5071415;28;20033;-71
2023/06/29 11:32:36;;;;;;;23.05;16.25;;;26.90;89.30;;;;;;5053762;28;20029;-70
2023/06/29 11:35:04;;;;;;;26.30;18.05;;;27.00;89.70;;;;;;5053449;28;20039;-71
2023/06/29 11:37:30;;;;;;;24.15;17.85;;;27.00;89.60;;;;;;5061348;28;20130;-71
2023/06/29 11:39:55;;;;;;;25.20;17.98;;;27.20;89.50;;;;;;5073186;28;20482;-71
2023/06/29 11:42:23;;;;;;;23.52;16.77;;;27.30;88.60;;;;;;5073457;28;20025;-70
2023/06/29 11:44:50;;;;;;;21.58;17.42;;;27.50;87.90;;;;;;5073349;28;20032;-70
2023/06/29 11:47:16;;;;;;;24.77;18.35;;;27.60;87.50;;;;;;5073391;28;20398;-70
2023/06/29 11:49:42;;;;;;;25.70;19.60;;;27.70;87.00;;;;;;5073444;28;20021;-70
2023/06/29 11:52:08;;;;;;;24.55;18.70;;;27.60;86.50;;;;;;5072824;28;20542;-71
2023/06/29 11:54:35;;;;;;;28.75;19.38;;;27.50;87.30;;;;;;5073448;28;20023;-71
2023/06/29 11:57:00;;;;;;;27.17;20.10;;;27.40;87.20;;;;;;5072406;28;20024;-71
2023/06/29 11:59:26;;;;;;;28.23;20.55;;;27.30;87.20;;;;;;5073904;28;20032;-71
2023/06/29 12:01:52;;;;;;;29.70;20.30;;;27.20;87.60;;;;;;5072665;28;20099;-71
2023/06/29 12:04:18;;;;;;;28.00;19.73;;;27.10;87.50;;;;;;5073023;28;20116;-71
2023/06/29 12:06:54;;;;;;;32.15;21.63;;;27.00;87.70;;;;;;5073189;28;20058;-70
2023/06/29 12:09:20;;;;;;;26.48;19.42;;;26.90;87.80;;;;;;5070775;28;20033;-70
2023/06/29 12:11:58;;;;;;;24.77;19.55;;;26.70;88.40;;;;;;5072854;28;20025;-71
2023/06/29 12:14:27;;;;;;;27.33;19.38;;;26.80;89.10;;;;;;5073121;28;20382;-71
2023/06/29 12:16:54;;;;;;;30.05;20.63;;;27.00;89.80;;;;;;5072544;28;20020;-71
2023/06/29 12:19:19;;;;;;;29.45;20.77;;;27.30;89.00;;;;;;5072731;28;20427;-71
2023/06/29 12:21:45;;;;;;;28.02;22.40;;;27.40;88.60;;;;;;5072881;28;20079;-71
2023/06/29 12:24:16;;;;;;;28.30;21.60;;;27.60;87.60;;;;;;5070878;28;20526;-71
2023/06/29 12:26:41;;;;;;;28.35;21.35;;;27.70;87.50;;;;;;5071516;28;20021;-70